sensor_id;sensor_type;location;lat;lon;timestamp;P1;durP1;ratioP1;P2;durP2;ratioP2
11384;SDS011;5747;56.748;13.882;2022-07-05T00:01:42;2.77;;;2.50;;
11384;SDS011;5747;56.748;13.882;2022-07-05T00:04:10;6.10;;;2.70;;
11384;SDS011;5747;56.748;13.882;2022-07-05T00:06:38;3.77;;;2.57;;
11384;SDS011;5747;56.748;13.882;2022-07-05T00:09:27;4.33;;;2.47;;
11384;SDS011;5747;56.748;13.882;2022-07-05T00:11:56;4.50;;;2.30;;
11384;SDS011;5747;56.748;13.882;2022-07-05T00:14:24;4.03;;;2.27;;
11384;SDS011;5747;56.748;13.882;2022-07-05T00:16:53;5.50;;;2.60;;
11384;SDS011;5747;56.748;13.882;2022-07-05T00:19:21;3.90;;;2.53;;
11384;SDS011;5747;56.748;13.882;2022-07-05T00:21:49;3.03;;;2.60;;
11384;SDS011;5747;56.748;13.882;2022-07-05T00:24:17;4.00;;;2.60;;
11384;SDS011;5747;56.748;13.882;2022-07-05T00:26:45;5.53;;;2.67;;
11384;SDS011;5747;56.748;13.882;2022-07-05T00:29:14;10.30;;;2.97;;
11384;SDS011;5747;56.748;13.882;2022-07-05T00:31:43;5.30;;;2.90;;
11384;SDS011;5747;56.748;13.882;2022-07-05T00:34:11;7.97;;;3.00;;
11384;SDS011;5747;56.748;13.882;2022-07-05T00:36:39;7.57;;;2.70;;
11384;SDS011;5747;56.748;13.882;2022-07-05T00:39:08;5.90;;;3.27;;
11384;SDS011;5747;56.748;13.882;2022-07-05T00:41:36;6.43;;;2.90;;
11384;SDS011;5747;56.748;13.882;2022-07-05T00:44:05;5.63;;;2.80;;
11384;SDS011;5747;56.748;13.882;2022-07-05T00:46:36;8.30;;;2.90;;
11384;SDS011;5747;56.748;13.882;2022-07-05T00:49:06;9.57;;;2.77;;
11384;SDS011;5747;56.748;13.882;2022-07-05T00:51:34;6.50;;;2.60;;
11384;SDS011;5747;56.748;13.882;2022-07-05T00:54:23;7.70;;;2.47;;
11384;SDS011;5747;56.748;13.882;2022-07-05T00:56:52;6.53;;;2.60;;
11384;SDS011;5747;56.748;13.882;2022-07-05T00:59:24;6.27;;;2.40;;
11384;SDS011;5747;56.748;13.882;2022-07-05T01:01:54;6.03;;;2.40;;
11384;SDS011;5747;56.748;13.882;2022-07-05T01:04:22;5.73;;;2.40;;
11384;SDS011;5747;56.748;13.882;2022-07-05T01:06:51;6.83;;;2.23;;
11384;SDS011;5747;56.748;13.882;2022-07-05T01:09:20;41.30;;;4.17;;
11384;SDS011;5747;56.748;13.882;2022-07-05T01:11:50;7.77;;;2.33;;
11384;SDS011;5747;56.748;13.882;2022-07-05T01:14:21;9.53;;;2.87;;
11384;SDS011;5747;56.748;13.882;2022-07-05T01:16:51;7.30;;;2.57;;
11384;SDS011;5747;56.748;13.882;2022-07-05T01:19:21;5.83;;;2.90;;
11384;SDS011;5747;56.748;13.882;2022-07-05T01:21:50;12.27;;;2.90;;
11384;SDS011;5747;56.748;13.882;2022-07-05T01:24:20;3.63;;;2.40;;
11384;SDS011;5747;56.748;13.882;2022-07-05T01:26:48;16.53;;;3.60;;
11384;SDS011;5747;56.748;13.882;2022-07-05T01:29:17;28.70;;;4.10;;
11384;SDS011;5747;56.748;13.882;2022-07-05T01:31:45;7.77;;;2.30;;
11384;SDS011;5747;56.748;13.882;2022-07-05T01:34:14;5.17;;;2.77;;
11384;SDS011;5747;56.748;13.882;2022-07-05T01:36:42;6.37;;;2.97;;
11384;SDS011;5747;56.748;13.882;2022-07-05T01:39:10;6.87;;;2.50;;
11384;SDS011;5747;56.748;13.882;2022-07-05T01:41:40;5.67;;;2.40;;
11384;SDS011;5747;56.748;13.882;2022-07-05T01:44:08;3.53;;;2.40;;
11384;SDS011;5747;56.748;13.882;2022-07-05T01:46:36;3.60;;;2.30;;
11384;SDS011;5747;56.748;13.882;2022-07-05T01:49:08;26.07;;;3.50;;
11384;SDS011;5747;56.748;13.882;2022-07-05T01:51:39;7.27;;;2.40;;
11384;SDS011;5747;56.748;13.882;2022-07-05T01:54:12;60.47;;;4.20;;
11384;SDS011;5747;56.748;13.882;2022-07-05T01:56:41;41.47;;;4.13;;
11384;SDS011;5747;56.748;13.882;2022-07-05T01:59:11;12.77;;;3.03;;
11384;SDS011;5747;56.748;13.882;2022-07-05T02:01:40;6.57;;;2.40;;
11384;SDS011;5747;56.748;13.882;2022-07-05T02:04:08;20.20;;;3.17;;
11384;SDS011;5747;56.748;13.882;2022-07-05T02:06:39;41.87;;;4.37;;
11384;SDS011;5747;56.748;13.882;2022-07-05T02:09:08;64.90;;;4.90;;
11384;SDS011;5747;56.748;13.882;2022-07-05T02:11:38;7.30;;;2.30;;
11384;SDS011;5747;56.748;13.882;2022-07-05T02:14:07;5.53;;;2.23;;
11384;SDS011;5747;56.748;13.882;2022-07-05T02:16:39;50.97;;;3.83;;
11384;SDS011;5747;56.748;13.882;2022-07-05T02:19:07;95.20;;;8.00;;
11384;SDS011;5747;56.748;13.882;2022-07-05T02:21:38;195.43;;;11.37;;
11384;SDS011;5747;56.748;13.882;2022-07-05T02:24:11;94.80;;;6.27;;
11384;SDS011;5747;56.748;13.882;2022-07-05T02:26:47;111.53;;;7.00;;
11384;SDS011;5747;56.748;13.882;2022-07-05T02:29:17;109.87;;;7.37;;
11384;SDS011;5747;56.748;13.882;2022-07-05T02:31:47;93.97;;;6.60;;
11384;SDS011;5747;56.748;13.882;2022-07-05T02:34:16;138.97;;;7.67;;
11384;SDS011;5747;56.748;13.882;2022-07-05T02:36:44;170.27;;;10.13;;
11384;SDS011;5747;56.748;13.882;2022-07-05T02:39:14;8.00;;;1.90;;
11384;SDS011;5747;56.748;13.882;2022-07-05T02:41:44;8.50;;;2.40;;
11384;SDS011;5747;56.748;13.882;2022-07-05T02:44:12;28.57;;;2.90;;
11384;SDS011;5747;56.748;13.882;2022-07-05T02:46:43;32.53;;;3.50;;
11384;SDS011;5747;56.748;13.882;2022-07-05T02:49:11;107.53;;;6.63;;
11384;SDS011;5747;56.748;13.882;2022-07-05T02:51:40;77.90;;;5.83;;
11384;SDS011;5747;56.748;13.882;2022-07-05T02:54:11;41.83;;;3.60;;
11384;SDS011;5747;56.748;13.882;2022-07-05T02:56:40;2.97;;;2.40;;
11384;SDS011;5747;56.748;13.882;2022-07-05T02:59:12;12.93;;;2.40;;
11384;SDS011;5747;56.748;13.882;2022-07-05T03:01:40;15.63;;;2.73;;
11384;SDS011;5747;56.748;13.882;2022-07-05T03:04:14;18.77;;;4.30;;
11384;SDS011;5747;56.748;13.882;2022-07-05T03:06:49;7.00;;;3.30;;
11384;SDS011;5747;56.748;13.882;2022-07-05T03:09:21;3.37;;;2.60;;
11384;SDS011;5747;56.748;13.882;2022-07-05T03:11:50;4.07;;;2.70;;
11384;SDS011;5747;56.748;13.882;2022-07-05T03:14:18;4.10;;;2.30;;
11384;SDS011;5747;56.748;13.882;2022-07-05T03:16:49;5.13;;;2.03;;
11384;SDS011;5747;56.748;13.882;2022-07-05T03:19:21;5.43;;;1.80;;
11384;SDS011;5747;56.748;13.882;2022-07-05T03:21:49;4.57;;;1.80;;
11384;SDS011;5747;56.748;13.882;2022-07-05T03:24:18;4.60;;;1.70;;
11384;SDS011;5747;56.748;13.882;2022-07-05T03:26:46;3.67;;;1.50;;
11384;SDS011;5747;56.748;13.882;2022-07-05T03:29:14;7.17;;;1.83;;
11384;SDS011;5747;56.748;13.882;2022-07-05T03:31:43;5.00;;;2.00;;
11384;SDS011;5747;56.748;13.882;2022-07-05T03:34:11;8.17;;;2.20;;
11384;SDS011;5747;56.748;13.882;2022-07-05T03:36:42;5.47;;;2.00;;
11384;SDS011;5747;56.748;13.882;2022-07-05T03:39:15;7.37;;;1.97;;
11384;SDS011;5747;56.748;13.882;2022-07-05T03:41:44;5.07;;;2.10;;
11384;SDS011;5747;56.748;13.882;2022-07-05T03:44:17;6.00;;;1.60;;
11384;SDS011;5747;56.748;13.882;2022-07-05T03:46:45;3.00;;;1.80;;
11384;SDS011;5747;56.748;13.882;2022-07-05T03:49:17;5.83;;;1.97;;
11384;SDS011;5747;56.748;13.882;2022-07-05T03:51:48;4.13;;;1.50;;
11384;SDS011;5747;56.748;13.882;2022-07-05T03:54:17;3.83;;;1.70;;
11384;SDS011;5747;56.748;13.882;2022-07-05T03:56:45;3.77;;;1.47;;
11384;SDS011;5747;56.748;13.882;2022-07-05T03:59:15;3.80;;;1.23;;
11384;SDS011;5747;56.748;13.882;2022-07-05T04:01:43;4.87;;;1.70;;
11384;SDS011;5747;56.748;13.882;2022-07-05T04:04:13;3.93;;;1.33;;
11384;SDS011;5747;56.748;13.882;2022-07-05T04:06:42;9.57;;;1.87;;
11384;SDS011;5747;56.748;13.882;2022-07-05T04:09:12;5.83;;;1.80;;
11384;SDS011;5747;56.748;13.882;2022-07-05T04:11:41;4.60;;;1.50;;
11384;SDS011;5747;56.748;13.882;2022-07-05T04:14:09;3.37;;;1.50;;
11384;SDS011;5747;56.748;13.882;2022-07-05T04:16:38;3.93;;;1.40;;
11384;SDS011;5747;56.748;13.882;2022-07-05T04:19:07;4.27;;;1.43;;
11384;SDS011;5747;56.748;13.882;2022-07-05T04:21:36;3.90;;;1.67;;
11384;SDS011;5747;56.748;13.882;2022-07-05T04:24:05;4.30;;;1.80;;
11384;SDS011;5747;56.748;13.882;2022-07-05T04:26:36;4.80;;;1.53;;
11384;SDS011;5747;56.748;13.882;2022-07-05T04:29:05;4.90;;;1.53;;
11384;SDS011;5747;56.748;13.882;2022-07-05T04:31:36;4.10;;;1.70;;
11384;SDS011;5747;56.748;13.882;2022-07-05T04:34:05;5.13;;;1.60;;
11384;SDS011;5747;56.748;13.882;2022-07-05T04:36:37;5.10;;;1.40;;
11384;SDS011;5747;56.748;13.882;2022-07-05T04:39:08;3.97;;;1.30;;
11384;SDS011;5747;56.748;13.882;2022-07-05T04:41:43;2.87;;;1.30;;
11384;SDS011;5747;56.748;13.882;2022-07-05T04:44:12;3.43;;;1.50;;
11384;SDS011;5747;56.748;13.882;2022-07-05T04:46:40;7.03;;;1.57;;
11384;SDS011;5747;56.748;13.882;2022-07-05T04:49:09;3.63;;;1.37;;
11384;SDS011;5747;56.748;13.882;2022-07-05T04:51:37;3.80;;;1.40;;
11384;SDS011;5747;56.748;13.882;2022-07-05T04:54:12;3.97;;;1.30;;
11384;SDS011;5747;56.748;13.882;2022-07-05T04:56:40;4.13;;;1.47;;
11384;SDS011;5747;56.748;13.882;2022-07-05T04:59:10;3.77;;;1.70;;
11384;SDS011;5747;56.748;13.882;2022-07-05T05:01:38;3.90;;;1.40;;
11384;SDS011;5747;56.748;13.882;2022-07-05T05:04:07;4.37;;;1.40;;
11384;SDS011;5747;56.748;13.882;2022-07-05T05:06:35;6.37;;;1.67;;
11384;SDS011;5747;56.748;13.882;2022-07-05T05:09:03;4.60;;;1.63;;
11384;SDS011;5747;56.748;13.882;2022-07-05T05:11:32;4.23;;;1.53;;
11384;SDS011;5747;56.748;13.882;2022-07-05T05:14:00;4.13;;;1.67;;
11384;SDS011;5747;56.748;13.882;2022-07-05T05:16:30;4.27;;;1.40;;
11384;SDS011;5747;56.748;13.882;2022-07-05T05:18:59;6.30;;;1.70;;
11384;SDS011;5747;56.748;13.882;2022-07-05T05:21:27;3.63;;;1.13;;
11384;SDS011;5747;56.748;13.882;2022-07-05T05:23:58;3.77;;;1.60;;
11384;SDS011;5747;56.748;13.882;2022-07-05T05:26:26;4.47;;;1.23;;
11384;SDS011;5747;56.748;13.882;2022-07-05T05:28:55;4.47;;;1.43;;
11384;SDS011;5747;56.748;13.882;2022-07-05T05:31:24;4.40;;;1.20;;
11384;SDS011;5747;56.748;13.882;2022-07-05T05:33:54;4.20;;;1.50;;
11384;SDS011;5747;56.748;13.882;2022-07-05T05:36:23;6.87;;;1.67;;
11384;SDS011;5747;56.748;13.882;2022-07-05T05:38:52;3.03;;;1.58;;
11384;SDS011;5747;56.748;13.882;2022-07-05T05:41:21;2.27;;;1.27;;
11384;SDS011;5747;56.748;13.882;2022-07-05T05:43:50;3.07;;;1.23;;
11384;SDS011;5747;56.748;13.882;2022-07-05T05:46:18;4.07;;;1.20;;
11384;SDS011;5747;56.748;13.882;2022-07-05T05:48:46;4.87;;;1.53;;
11384;SDS011;5747;56.748;13.882;2022-07-05T05:51:16;4.37;;;1.37;;
11384;SDS011;5747;56.748;13.882;2022-07-05T05:53:44;4.23;;;1.43;;
11384;SDS011;5747;56.748;13.882;2022-07-05T05:56:13;2.93;;;1.23;;
11384;SDS011;5747;56.748;13.882;2022-07-05T05:58:41;4.73;;;1.37;;
11384;SDS011;5747;56.748;13.882;2022-07-05T06:01:09;4.77;;;1.37;;
11384;SDS011;5747;56.748;13.882;2022-07-05T06:03:38;5.77;;;1.47;;
11384;SDS011;5747;56.748;13.882;2022-07-05T06:06:06;3.37;;;1.70;;
11384;SDS011;5747;56.748;13.882;2022-07-05T06:08:36;4.53;;;1.20;;
11384;SDS011;5747;56.748;13.882;2022-07-05T06:11:04;2.30;;;1.20;;
11384;SDS011;5747;56.748;13.882;2022-07-05T06:13:33;5.50;;;1.37;;
11384;SDS011;5747;56.748;13.882;2022-07-05T06:16:01;3.47;;;1.30;;
11384;SDS011;5747;56.748;13.882;2022-07-05T06:18:30;3.83;;;1.40;;
11384;SDS011;5747;56.748;13.882;2022-07-05T06:20:58;2.47;;;1.10;;
11384;SDS011;5747;56.748;13.882;2022-07-05T06:23:26;4.37;;;1.40;;
11384;SDS011;5747;56.748;13.882;2022-07-05T06:25:56;3.50;;;1.43;;
11384;SDS011;5747;56.748;13.882;2022-07-05T06:28:24;4.17;;;1.13;;
11384;SDS011;5747;56.748;13.882;2022-07-05T06:30:53;4.33;;;1.40;;
11384;SDS011;5747;56.748;13.882;2022-07-05T06:33:21;2.77;;;1.33;;
11384;SDS011;5747;56.748;13.882;2022-07-05T06:35:49;4.33;;;1.30;;
11384;SDS011;5747;56.748;13.882;2022-07-05T06:38:18;3.67;;;1.57;;
11384;SDS011;5747;56.748;13.882;2022-07-05T06:40:46;3.27;;;1.43;;
11384;SDS011;5747;56.748;13.882;2022-07-05T06:43:16;3.57;;;1.20;;
11384;SDS011;5747;56.748;13.882;2022-07-05T06:45:56;6.23;;;1.43;;
11384;SDS011;5747;56.748;13.882;2022-07-05T06:48:25;2.93;;;1.23;;
11384;SDS011;5747;56.748;13.882;2022-07-05T06:50:53;5.03;;;1.40;;
11384;SDS011;5747;56.748;13.882;2022-07-05T06:53:22;4.23;;;1.40;;
11384;SDS011;5747;56.748;13.882;2022-07-05T06:55:51;4.00;;;1.27;;
11384;SDS011;5747;56.748;13.882;2022-07-05T06:58:23;3.47;;;1.17;;
11384;SDS011;5747;56.748;13.882;2022-07-05T07:00:52;3.27;;;1.30;;
11384;SDS011;5747;56.748;13.882;2022-07-05T07:03:40;5.43;;;1.40;;
11384;SDS011;5747;56.748;13.882;2022-07-05T07:06:28;5.63;;;1.40;;
11384;SDS011;5747;56.748;13.882;2022-07-05T07:08:57;3.53;;;1.47;;
11384;SDS011;5747;56.748;13.882;2022-07-05T07:11:42;3.77;;;1.50;;
11384;SDS011;5747;56.748;13.882;2022-07-05T07:14:12;3.30;;;1.53;;
11384;SDS011;5747;56.748;13.882;2022-07-05T07:16:40;4.13;;;1.80;;
11384;SDS011;5747;56.748;13.882;2022-07-05T07:19:08;4.17;;;1.90;;
11384;SDS011;5747;56.748;13.882;2022-07-05T07:21:39;6.50;;;1.47;;
11384;SDS011;5747;56.748;13.882;2022-07-05T07:24:08;5.73;;;1.90;;
11384;SDS011;5747;56.748;13.882;2022-07-05T07:26:37;4.30;;;1.57;;
11384;SDS011;5747;56.748;13.882;2022-07-05T07:29:24;3.17;;;1.30;;
11384;SDS011;5747;56.748;13.882;2022-07-05T07:31:52;2.77;;;1.10;;
11384;SDS011;5747;56.748;13.882;2022-07-05T07:34:21;4.83;;;1.50;;
11384;SDS011;5747;56.748;13.882;2022-07-05T07:36:49;7.93;;;2.17;;
11384;SDS011;5747;56.748;13.882;2022-07-05T07:39:17;5.03;;;1.40;;
11384;SDS011;5747;56.748;13.882;2022-07-05T07:41:45;1.93;;;1.10;;
11384;SDS011;5747;56.748;13.882;2022-07-05T07:44:14;4.63;;;1.30;;
11384;SDS011;5747;56.748;13.882;2022-07-05T07:46:44;4.33;;;1.43;;
11384;SDS011;5747;56.748;13.882;2022-07-05T07:49:12;4.57;;;1.37;;
11384;SDS011;5747;56.748;13.882;2022-07-05T07:51:40;5.10;;;1.10;;
11384;SDS011;5747;56.748;13.882;2022-07-05T07:54:09;5.03;;;1.20;;
11384;SDS011;5747;56.748;13.882;2022-07-05T07:56:37;3.50;;;1.10;;
11384;SDS011;5747;56.748;13.882;2022-07-05T07:59:06;4.43;;;1.47;;
11384;SDS011;5747;56.748;13.882;2022-07-05T08:01:34;4.97;;;1.40;;
11384;SDS011;5747;56.748;13.882;2022-07-05T08:04:11;4.83;;;1.60;;
11384;SDS011;5747;56.748;13.882;2022-07-05T08:06:41;4.27;;;1.10;;
11384;SDS011;5747;56.748;13.882;2022-07-05T08:09:11;3.87;;;1.20;;
11384;SDS011;5747;56.748;13.882;2022-07-05T08:11:43;2.90;;;0.93;;
11384;SDS011;5747;56.748;13.882;2022-07-05T08:14:12;4.00;;;1.33;;
11384;SDS011;5747;56.748;13.882;2022-07-05T08:16:41;5.57;;;1.40;;
11384;SDS011;5747;56.748;13.882;2022-07-05T08:19:19;3.57;;;1.30;;
11384;SDS011;5747;56.748;13.882;2022-07-05T08:22:05;3.03;;;1.10;;
11384;SDS011;5747;56.748;13.882;2022-07-05T08:24:35;5.40;;;1.20;;
11384;SDS011;5747;56.748;13.882;2022-07-05T08:27:05;1.40;;;1.03;;
11384;SDS011;5747;56.748;13.882;2022-07-05T08:29:34;2.00;;;1.00;;
11384;SDS011;5747;56.748;13.882;2022-07-05T08:32:03;3.83;;;1.40;;
11384;SDS011;5747;56.748;13.882;2022-07-05T08:34:33;3.37;;;1.20;;
11384;SDS011;5747;56.748;13.882;2022-07-05T08:37:01;2.40;;;0.93;;
11384;SDS011;5747;56.748;13.882;2022-07-05T08:39:29;3.83;;;1.40;;
11384;SDS011;5747;56.748;13.882;2022-07-05T08:41:59;3.37;;;1.00;;
11384;SDS011;5747;56.748;13.882;2022-07-05T08:44:28;3.07;;;1.20;;
11384;SDS011;5747;56.748;13.882;2022-07-05T08:47:02;3.43;;;1.10;;
11384;SDS011;5747;56.748;13.882;2022-07-05T08:49:31;3.13;;;1.23;;
11384;SDS011;5747;56.748;13.882;2022-07-05T08:52:02;2.23;;;1.20;;
11384;SDS011;5747;56.748;13.882;2022-07-05T08:54:35;3.13;;;1.17;;
11384;SDS011;5747;56.748;13.882;2022-07-05T08:57:04;2.23;;;1.00;;
11384;SDS011;5747;56.748;13.882;2022-07-05T08:59:38;4.03;;;1.10;;
11384;SDS011;5747;56.748;13.882;2022-07-05T09:02:21;2.20;;;1.10;;
11384;SDS011;5747;56.748;13.882;2022-07-05T09:04:50;4.07;;;1.40;;
11384;SDS011;5747;56.748;13.882;2022-07-05T09:07:21;3.83;;;1.33;;
11384;SDS011;5747;56.748;13.882;2022-07-05T09:09:52;4.73;;;1.13;;
11384;SDS011;5747;56.748;13.882;2022-07-05T09:12:23;2.60;;;1.10;;
11384;SDS011;5747;56.748;13.882;2022-07-05T09:14:52;4.17;;;1.20;;
11384;SDS011;5747;56.748;13.882;2022-07-05T09:17:22;2.87;;;0.90;;
11384;SDS011;5747;56.748;13.882;2022-07-05T09:20:08;2.53;;;1.30;;
11384;SDS011;5747;56.748;13.882;2022-07-05T09:22:42;3.57;;;1.30;;
11384;SDS011;5747;56.748;13.882;2022-07-05T09:25:16;5.53;;;1.20;;
11384;SDS011;5747;56.748;13.882;2022-07-05T09:27:53;4.10;;;1.20;;
11384;SDS011;5747;56.748;13.882;2022-07-05T09:30:23;1.63;;;0.83;;
11384;SDS011;5747;56.748;13.882;2022-07-05T09:33:02;3.73;;;1.17;;
11384;SDS011;5747;56.748;13.882;2022-07-05T09:35:33;2.87;;;1.00;;
11384;SDS011;5747;56.748;13.882;2022-07-05T09:38:03;3.00;;;1.13;;
11384;SDS011;5747;56.748;13.882;2022-07-05T09:40:31;2.57;;;1.00;;
11384;SDS011;5747;56.748;13.882;2022-07-05T09:43:12;2.33;;;0.90;;
11384;SDS011;5747;56.748;13.882;2022-07-05T09:45:49;3.27;;;1.20;;
11384;SDS011;5747;56.748;13.882;2022-07-05T09:48:19;3.80;;;1.23;;
11384;SDS011;5747;56.748;13.882;2022-07-05T09:51:09;3.17;;;1.10;;
11384;SDS011;5747;56.748;13.882;2022-07-05T09:53:58;2.33;;;0.90;;
11384;SDS011;5747;56.748;13.882;2022-07-05T09:56:44;5.03;;;0.90;;
11384;SDS011;5747;56.748;13.882;2022-07-05T09:59:14;1.87;;;0.80;;
11384;SDS011;5747;56.748;13.882;2022-07-05T10:01:45;1.53;;;1.00;;
11384;SDS011;5747;56.748;13.882;2022-07-05T10:04:13;3.73;;;1.30;;
11384;SDS011;5747;56.748;13.882;2022-07-05T10:06:43;1.13;;;0.80;;
11384;SDS011;5747;56.748;13.882;2022-07-05T10:09:12;1.93;;;1.30;;
11384;SDS011;5747;56.748;13.882;2022-07-05T10:11:42;2.57;;;0.97;;
11384;SDS011;5747;56.748;13.882;2022-07-05T10:14:14;3.07;;;1.00;;
11384;SDS011;5747;56.748;13.882;2022-07-05T10:16:45;1.13;;;0.73;;
11384;SDS011;5747;56.748;13.882;2022-07-05T10:19:18;2.60;;;0.90;;
11384;SDS011;5747;56.748;13.882;2022-07-05T10:21:48;2.10;;;0.93;;
11384;SDS011;5747;56.748;13.882;2022-07-05T10:24:37;3.30;;;0.90;;
11384;SDS011;5747;56.748;13.882;2022-07-05T10:27:06;3.27;;;0.97;;
11384;SDS011;5747;56.748;13.882;2022-07-05T10:29:35;4.70;;;0.90;;
11384;SDS011;5747;56.748;13.882;2022-07-05T10:32:05;2.60;;;1.07;;
11384;SDS011;5747;56.748;13.882;2022-07-05T10:34:35;6.13;;;1.10;;
11384;SDS011;5747;56.748;13.882;2022-07-05T10:37:23;3.13;;;0.80;;
11384;SDS011;5747;56.748;13.882;2022-07-05T10:39:54;2.83;;;0.70;;
11384;SDS011;5747;56.748;13.882;2022-07-05T10:42:23;5.53;;;0.83;;
11384;SDS011;5747;56.748;13.882;2022-07-05T10:44:52;1.87;;;0.77;;
11384;SDS011;5747;56.748;13.882;2022-07-05T10:47:20;1.90;;;0.70;;
11384;SDS011;5747;56.748;13.882;2022-07-05T10:49:59;1.67;;;0.70;;
11384;SDS011;5747;56.748;13.882;2022-07-05T10:52:30;4.37;;;1.10;;
11384;SDS011;5747;56.748;13.882;2022-07-05T11:06:47;0.73;;;0.57;;
11384;SDS011;5747;56.748;13.882;2022-07-05T11:09:18;0.60;;;0.60;;
11384;SDS011;5747;56.748;13.882;2022-07-05T11:11:48;3.63;;;1.03;;
11384;SDS011;5747;56.748;13.882;2022-07-05T11:14:51;1.10;;;0.70;;
11384;SDS011;5747;56.748;13.882;2022-07-05T11:17:20;2.63;;;0.73;;
11384;SDS011;5747;56.748;13.882;2022-07-05T11:20:15;2.57;;;0.90;;
11384;SDS011;5747;56.748;13.882;2022-07-05T11:23:04;2.53;;;0.90;;
11384;SDS011;5747;56.748;13.882;2022-07-05T11:25:39;3.80;;;1.07;;
11384;SDS011;5747;56.748;13.882;2022-07-05T11:28:18;3.70;;;1.10;;
11384;SDS011;5747;56.748;13.882;2022-07-05T11:30:54;4.03;;;0.90;;
11384;SDS011;5747;56.748;13.882;2022-07-05T11:33:34;1.60;;;0.60;;
11384;SDS011;5747;56.748;13.882;2022-07-05T11:36:06;2.80;;;0.70;;
11384;SDS011;5747;56.748;13.882;2022-07-05T11:41:42;2.17;;;0.90;;
11384;SDS011;5747;56.748;13.882;2022-07-05T11:44:12;5.13;;;1.00;;
11384;SDS011;5747;56.748;13.882;2022-07-05T11:46:41;3.87;;;1.00;;
11384;SDS011;5747;56.748;13.882;2022-07-05T11:49:21;1.23;;;0.50;;
11384;SDS011;5747;56.748;13.882;2022-07-05T11:51:54;2.67;;;0.87;;
11384;SDS011;5747;56.748;13.882;2022-07-05T11:54:24;2.33;;;1.00;;
11384;SDS011;5747;56.748;13.882;2022-07-05T11:56:54;1.77;;;0.90;;
11384;SDS011;5747;56.748;13.882;2022-07-05T11:59:23;2.77;;;0.80;;
11384;SDS011;5747;56.748;13.882;2022-07-05T12:01:53;1.63;;;0.80;;
11384;SDS011;5747;56.748;13.882;2022-07-05T12:04:22;2.17;;;0.80;;
11384;SDS011;5747;56.748;13.882;2022-07-05T12:06:51;2.83;;;0.87;;
11384;SDS011;5747;56.748;13.882;2022-07-05T12:09:21;2.00;;;0.90;;
11384;SDS011;5747;56.748;13.882;2022-07-05T12:11:51;1.67;;;0.80;;
11384;SDS011;5747;56.748;13.882;2022-07-05T12:14:38;4.10;;;1.00;;
11384;SDS011;5747;56.748;13.882;2022-07-05T12:17:15;2.30;;;0.87;;
11384;SDS011;5747;56.748;13.882;2022-07-05T12:19:50;1.83;;;0.83;;
11384;SDS011;5747;56.748;13.882;2022-07-05T12:22:27;1.97;;;0.77;;
11384;SDS011;5747;56.748;13.882;2022-07-05T12:24:56;3.03;;;0.80;;
11384;SDS011;5747;56.748;13.882;2022-07-05T12:27:25;2.43;;;0.87;;
11384;SDS011;5747;56.748;13.882;2022-07-05T12:29:55;3.73;;;1.00;;
11384;SDS011;5747;56.748;13.882;2022-07-05T12:32:23;3.40;;;0.90;;
11384;SDS011;5747;56.748;13.882;2022-07-05T12:34:52;2.13;;;0.83;;
11384;SDS011;5747;56.748;13.882;2022-07-05T12:37:20;5.53;;;1.67;;
11384;SDS011;5747;56.748;13.882;2022-07-05T12:39:49;2.90;;;1.07;;
11384;SDS011;5747;56.748;13.882;2022-07-05T12:42:30;0.90;;;0.70;;
11384;SDS011;5747;56.748;13.882;2022-07-05T12:45:10;2.07;;;1.00;;
11384;SDS011;5747;56.748;13.882;2022-07-05T12:47:49;2.53;;;1.10;;
11384;SDS011;5747;56.748;13.882;2022-07-05T12:50:21;3.00;;;0.90;;
11384;SDS011;5747;56.748;13.882;2022-07-05T12:52:54;1.97;;;0.87;;
11384;SDS011;5747;56.748;13.882;2022-07-05T12:55:33;1.17;;;0.70;;
11384;SDS011;5747;56.748;13.882;2022-07-05T12:58:20;2.73;;;0.93;;
11384;SDS011;5747;56.748;13.882;2022-07-05T13:00:49;2.47;;;1.00;;
11384;SDS011;5747;56.748;13.882;2022-07-05T13:03:18;2.57;;;1.00;;
11384;SDS011;5747;56.748;13.882;2022-07-05T13:05:59;7.27;;;1.10;;
11384;SDS011;5747;56.748;13.882;2022-07-05T13:08:28;2.90;;;0.80;;
11384;SDS011;5747;56.748;13.882;2022-07-05T13:10:57;3.20;;;1.20;;
11384;SDS011;5747;56.748;13.882;2022-07-05T13:13:25;2.27;;;1.00;;
11384;SDS011;5747;56.748;13.882;2022-07-05T13:15:55;1.40;;;0.93;;
11384;SDS011;5747;56.748;13.882;2022-07-05T13:18:25;2.47;;;0.87;;
11384;SDS011;5747;56.748;13.882;2022-07-05T13:20:53;3.37;;;0.80;;
11384;SDS011;5747;56.748;13.882;2022-07-05T13:23:21;4.03;;;0.90;;
11384;SDS011;5747;56.748;13.882;2022-07-05T13:25:50;3.67;;;0.80;;
11384;SDS011;5747;56.748;13.882;2022-07-05T13:28:18;3.17;;;0.80;;
11384;SDS011;5747;56.748;13.882;2022-07-05T13:30:46;7.80;;;1.00;;
11384;SDS011;5747;56.748;13.882;2022-07-05T13:33:16;2.93;;;1.03;;
11384;SDS011;5747;56.748;13.882;2022-07-05T13:35:44;3.17;;;1.20;;
11384;SDS011;5747;56.748;13.882;2022-07-05T13:38:12;2.37;;;0.90;;
11384;SDS011;5747;56.748;13.882;2022-07-05T13:40:40;3.10;;;1.20;;
11384;SDS011;5747;56.748;13.882;2022-07-05T13:43:08;4.23;;;1.23;;
11384;SDS011;5747;56.748;13.882;2022-07-05T13:45:37;4.63;;;0.97;;
11384;SDS011;5747;56.748;13.882;2022-07-05T13:48:05;3.40;;;0.83;;
11384;SDS011;5747;56.748;13.882;2022-07-05T13:50:36;4.00;;;1.17;;
11384;SDS011;5747;56.748;13.882;2022-07-05T13:53:05;4.93;;;1.13;;
11384;SDS011;5747;56.748;13.882;2022-07-05T13:55:33;3.13;;;1.00;;
11384;SDS011;5747;56.748;13.882;2022-07-05T13:58:01;4.47;;;1.00;;
11384;SDS011;5747;56.748;13.882;2022-07-05T14:00:30;6.83;;;1.40;;
11384;SDS011;5747;56.748;13.882;2022-07-05T14:02:58;2.00;;;0.97;;
11384;SDS011;5747;56.748;13.882;2022-07-05T14:05:31;3.07;;;0.83;;
11384;SDS011;5747;56.748;13.882;2022-07-05T14:08:01;4.83;;;1.07;;
11384;SDS011;5747;56.748;13.882;2022-07-05T14:10:29;4.50;;;0.87;;
11384;SDS011;5747;56.748;13.882;2022-07-05T14:12:57;4.10;;;0.87;;
11384;SDS011;5747;56.748;13.882;2022-07-05T14:15:25;2.00;;;0.90;;
11384;SDS011;5747;56.748;13.882;2022-07-05T14:17:53;3.47;;;0.70;;
11384;SDS011;5747;56.748;13.882;2022-07-05T14:20:22;1.23;;;0.80;;
11384;SDS011;5747;56.748;13.882;2022-07-05T14:22:51;2.47;;;0.80;;
11384;SDS011;5747;56.748;13.882;2022-07-05T14:25:21;4.07;;;0.80;;
11384;SDS011;5747;56.748;13.882;2022-07-05T14:27:49;1.83;;;0.77;;
11384;SDS011;5747;56.748;13.882;2022-07-05T14:30:17;2.83;;;0.90;;
11384;SDS011;5747;56.748;13.882;2022-07-05T14:32:45;5.97;;;1.00;;
11384;SDS011;5747;56.748;13.882;2022-07-05T14:35:14;2.57;;;0.70;;
11384;SDS011;5747;56.748;13.882;2022-07-05T14:37:42;4.30;;;0.87;;
11384;SDS011;5747;56.748;13.882;2022-07-05T14:40:10;3.23;;;1.00;;
11384;SDS011;5747;56.748;13.882;2022-07-05T14:42:40;2.40;;;0.90;;
11384;SDS011;5747;56.748;13.882;2022-07-05T14:45:09;1.80;;;0.80;;
11384;SDS011;5747;56.748;13.882;2022-07-05T14:47:37;3.53;;;1.40;;
11384;SDS011;5747;56.748;13.882;2022-07-05T14:50:05;3.63;;;1.10;;
11384;SDS011;5747;56.748;13.882;2022-07-05T14:52:34;4.57;;;1.10;;
11384;SDS011;5747;56.748;13.882;2022-07-05T14:55:02;3.40;;;0.83;;
11384;SDS011;5747;56.748;13.882;2022-07-05T14:57:31;2.70;;;1.00;;
11384;SDS011;5747;56.748;13.882;2022-07-05T15:00:00;4.07;;;1.17;;
11384;SDS011;5747;56.748;13.882;2022-07-05T15:02:29;3.07;;;1.00;;
11384;SDS011;5747;56.748;13.882;2022-07-05T15:04:57;5.73;;;0.93;;
11384;SDS011;5747;56.748;13.882;2022-07-05T15:07:26;4.23;;;1.00;;
11384;SDS011;5747;56.748;13.882;2022-07-05T15:09:54;4.97;;;1.20;;
11384;SDS011;5747;56.748;13.882;2022-07-05T15:12:22;3.13;;;1.40;;
11384;SDS011;5747;56.748;13.882;2022-07-05T15:14:50;2.47;;;0.80;;
11384;SDS011;5747;56.748;13.882;2022-07-05T15:17:26;1.57;;;0.80;;
11384;SDS011;5747;56.748;13.882;2022-07-05T15:19:54;2.13;;;0.90;;
11384;SDS011;5747;56.748;13.882;2022-07-05T15:22:23;2.07;;;1.10;;